sensor_id;sensor_type;location;lat;lon;timestamp;P1;durP1;ratioP1;P2;durP2;ratioP2
75535;SDS011;64119;52.070;20.804;2023-02-25T00:00:34;15.50;;;7.30;;
75535;SDS011;64119;52.070;20.804;2023-02-25T00:03:12;12.20;;;6.50;;
75535;SDS011;64119;52.070;20.804;2023-02-25T00:05:42;15.30;;;7.80;;
75535;SDS011;64119;52.070;20.804;2023-02-25T00:08:09;13.10;;;7.00;;
75535;SDS011;64119;52.070;20.804;2023-02-25T00:10:37;13.20;;;7.30;;
75535;SDS011;64119;52.070;20.804;2023-02-25T00:13:05;14.10;;;7.20;;
75535;SDS011;64119;52.070;20.804;2023-02-25T00:15:44;16.60;;;7.90;;
75535;SDS011;64119;52.070;20.804;2023-02-25T00:18:12;14.60;;;8.20;;
75535;SDS011;64119;52.070;20.804;2023-02-25T00:20:40;11.90;;;6.40;;
75535;SDS011;64119;52.070;20.804;2023-02-25T00:23:07;13.80;;;7.40;;
75535;SDS011;64119;52.070;20.804;2023-02-25T00:25:35;18.90;;;7.90;;
75535;SDS011;64119;52.070;20.804;2023-02-25T00:28:03;15.10;;;7.80;;
75535;SDS011;64119;52.070;20.804;2023-02-25T00:30:33;13.60;;;6.20;;
75535;SDS011;64119;52.070;20.804;2023-02-25T00:33:01;14.40;;;7.80;;
75535;SDS011;64119;52.070;20.804;2023-02-25T00:35:29;17.30;;;8.30;;
75535;SDS011;64119;52.070;20.804;2023-02-25T00:37:57;14.30;;;6.90;;
75535;SDS011;64119;52.070;20.804;2023-02-25T00:40:42;13.60;;;7.50;;
75535;SDS011;64119;52.070;20.804;2023-02-25T00:43:10;15.10;;;7.60;;
75535;SDS011;64119;52.070;20.804;2023-02-25T00:45:38;17.30;;;7.60;;
75535;SDS011;64119;52.070;20.804;2023-02-25T00:48:08;15.90;;;7.20;;
75535;SDS011;64119;52.070;20.804;2023-02-25T00:50:36;17.20;;;8.10;;
75535;SDS011;64119;52.070;20.804;2023-02-25T00:53:06;16.60;;;6.80;;
75535;SDS011;64119;52.070;20.804;2023-02-25T00:55:33;16.10;;;7.80;;
75535;SDS011;64119;52.070;20.804;2023-02-25T00:58:01;20.00;;;8.40;;
75535;SDS011;64119;52.070;20.804;2023-02-25T01:00:29;15.60;;;7.70;;
75535;SDS011;64119;52.070;20.804;2023-02-25T01:03:07;15.40;;;7.60;;
75535;SDS011;64119;52.070;20.804;2023-02-25T01:05:39;15.50;;;7.30;;
75535;SDS011;64119;52.070;20.804;2023-02-25T01:08:07;17.80;;;7.10;;
75535;SDS011;64119;52.070;20.804;2023-02-25T01:10:35;11.20;;;6.10;;
75535;SDS011;64119;52.070;20.804;2023-02-25T01:13:03;14.10;;;6.50;;
75535;SDS011;64119;52.070;20.804;2023-02-25T01:15:31;11.40;;;6.10;;
75535;SDS011;64119;52.070;20.804;2023-02-25T01:17:59;14.20;;;6.50;;
75535;SDS011;64119;52.070;20.804;2023-02-25T01:20:27;13.00;;;6.20;;
75535;SDS011;64119;52.070;20.804;2023-02-25T01:22:56;13.30;;;6.20;;
75535;SDS011;64119;52.070;20.804;2023-02-25T01:25:24;16.80;;;6.70;;
75535;SDS011;64119;52.070;20.804;2023-02-25T01:27:55;14.70;;;6.70;;
75535;SDS011;64119;52.070;20.804;2023-02-25T01:30:23;13.30;;;6.50;;
75535;SDS011;64119;52.070;20.804;2023-02-25T01:32:51;10.60;;;5.90;;
75535;SDS011;64119;52.070;20.804;2023-02-25T01:35:19;13.10;;;7.10;;
75535;SDS011;64119;52.070;20.804;2023-02-25T01:37:47;11.60;;;5.70;;
75535;SDS011;64119;52.070;20.804;2023-02-25T01:40:16;10.80;;;5.50;;
75535;SDS011;64119;52.070;20.804;2023-02-25T01:42:44;10.70;;;6.30;;
75535;SDS011;64119;52.070;20.804;2023-02-25T01:47:45;13.40;;;6.30;;
75535;SDS011;64119;52.070;20.804;2023-02-25T01:50:18;12.10;;;6.50;;
75535;SDS011;64119;52.070;20.804;2023-02-25T01:52:49;12.80;;;6.30;;
75535;SDS011;64119;52.070;20.804;2023-02-25T01:55:17;13.00;;;6.20;;
75535;SDS011;64119;52.070;20.804;2023-02-25T01:57:45;12.10;;;5.60;;
75535;SDS011;64119;52.070;20.804;2023-02-25T02:00:13;12.30;;;5.50;;
75535;SDS011;64119;52.070;20.804;2023-02-25T02:02:44;13.20;;;5.70;;
75535;SDS011;64119;52.070;20.804;2023-02-25T02:05:13;11.10;;;5.60;;
75535;SDS011;64119;52.070;20.804;2023-02-25T02:07:42;14.40;;;6.70;;
75535;SDS011;64119;52.070;20.804;2023-02-25T02:10:10;10.50;;;5.80;;
75535;SDS011;64119;52.070;20.804;2023-02-25T02:12:39;14.30;;;5.80;;
75535;SDS011;64119;52.070;20.804;2023-02-25T02:15:12;13.30;;;6.10;;
75535;SDS011;64119;52.070;20.804;2023-02-25T02:23:38;13.40;;;5.30;;
75535;SDS011;64119;52.070;20.804;2023-02-25T02:26:26;14.10;;;6.60;;
75535;SDS011;64119;52.070;20.804;2023-02-25T02:43:04;14.50;;;7.00;;
75535;SDS011;64119;52.070;20.804;2023-02-25T02:45:42;11.50;;;6.10;;
75535;SDS011;64119;52.070;20.804;2023-02-25T02:48:13;9.80;;;5.20;;
75535;SDS011;64119;52.070;20.804;2023-02-25T02:50:49;13.00;;;6.20;;
75535;SDS011;64119;52.070;20.804;2023-02-25T02:53:33;13.00;;;6.40;;
75535;SDS011;64119;52.070;20.804;2023-02-25T02:56:07;13.40;;;6.10;;
75535;SDS011;64119;52.070;20.804;2023-02-25T02:58:40;13.20;;;6.00;;
75535;SDS011;64119;52.070;20.804;2023-02-25T03:04:02;11.50;;;5.40;;
75535;SDS011;64119;52.070;20.804;2023-02-25T03:06:35;13.50;;;6.10;;
75535;SDS011;64119;52.070;20.804;2023-02-25T03:09:09;12.90;;;5.70;;
75535;SDS011;64119;52.070;20.804;2023-02-25T03:11:41;14.00;;;6.50;;
75535;SDS011;64119;52.070;20.804;2023-02-25T03:14:11;13.30;;;6.60;;
75535;SDS011;64119;52.070;20.804;2023-02-25T03:16:40;17.70;;;6.60;;
75535;SDS011;64119;52.070;20.804;2023-02-25T03:19:24;14.80;;;6.70;;
75535;SDS011;64119;52.070;20.804;2023-02-25T03:21:59;7.20;;;4.10;;
75535;SDS011;64119;52.070;20.804;2023-02-25T03:24:38;15.00;;;6.70;;
75535;SDS011;64119;52.070;20.804;2023-02-25T03:27:19;15.90;;;6.20;;
75535;SDS011;64119;52.070;20.804;2023-02-25T03:29:51;12.00;;;5.70;;
75535;SDS011;64119;52.070;20.804;2023-02-25T03:32:23;9.90;;;5.40;;
75535;SDS011;64119;52.070;20.804;2023-02-25T03:34:54;12.30;;;5.10;;
75535;SDS011;64119;52.070;20.804;2023-02-25T03:37:24;13.30;;;5.90;;
75535;SDS011;64119;52.070;20.804;2023-02-25T03:39:57;9.80;;;4.70;;
75535;SDS011;64119;52.070;20.804;2023-02-25T03:42:29;14.90;;;5.40;;
75535;SDS011;64119;52.070;20.804;2023-02-25T03:45:01;10.50;;;5.90;;
75535;SDS011;64119;52.070;20.804;2023-02-25T03:47:33;9.10;;;4.50;;
75535;SDS011;64119;52.070;20.804;2023-02-25T03:50:07;9.20;;;5.10;;
75535;SDS011;64119;52.070;20.804;2023-02-25T03:52:39;10.90;;;5.60;;
75535;SDS011;64119;52.070;20.804;2023-02-25T03:55:15;9.10;;;4.90;;
75535;SDS011;64119;52.070;20.804;2023-02-25T03:57:45;14.40;;;6.00;;
75535;SDS011;64119;52.070;20.804;2023-02-25T04:00:35;12.20;;;6.00;;
75535;SDS011;64119;52.070;20.804;2023-02-25T04:03:05;12.90;;;5.60;;
75535;SDS011;64119;52.070;20.804;2023-02-25T04:05:33;10.40;;;5.30;;
75535;SDS011;64119;52.070;20.804;2023-02-25T04:08:02;12.10;;;5.70;;
75535;SDS011;64119;52.070;20.804;2023-02-25T04:10:33;9.80;;;5.50;;
75535;SDS011;64119;52.070;20.804;2023-02-25T04:13:01;11.20;;;5.40;;
75535;SDS011;64119;52.070;20.804;2023-02-25T04:15:29;11.20;;;5.60;;
75535;SDS011;64119;52.070;20.804;2023-02-25T04:17:56;10.60;;;5.40;;
75535;SDS011;64119;52.070;20.804;2023-02-25T04:20:25;14.20;;;6.40;;
75535;SDS011;64119;52.070;20.804;2023-02-25T04:22:52;11.30;;;5.80;;
75535;SDS011;64119;52.070;20.804;2023-02-25T04:25:20;11.50;;;6.40;;
75535;SDS011;64119;52.070;20.804;2023-02-25T04:27:47;12.50;;;6.00;;
75535;SDS011;64119;52.070;20.804;2023-02-25T04:30:15;12.30;;;6.00;;
75535;SDS011;64119;52.070;20.804;2023-02-25T04:32:43;10.90;;;5.50;;
75535;SDS011;64119;52.070;20.804;2023-02-25T04:35:11;11.10;;;5.00;;
75535;SDS011;64119;52.070;20.804;2023-02-25T04:37:40;9.20;;;4.90;;
75535;SDS011;64119;52.070;20.804;2023-02-25T04:40:11;8.40;;;4.60;;
75535;SDS011;64119;52.070;20.804;2023-02-25T04:42:41;9.20;;;5.20;;
75535;SDS011;64119;52.070;20.804;2023-02-25T04:45:09;9.30;;;4.90;;
75535;SDS011;64119;52.070;20.804;2023-02-25T04:47:38;9.30;;;5.20;;
75535;SDS011;64119;52.070;20.804;2023-02-25T04:50:07;9.40;;;5.10;;
75535;SDS011;64119;52.070;20.804;2023-02-25T04:52:36;10.70;;;4.90;;
75535;SDS011;64119;52.070;20.804;2023-02-25T04:55:04;8.40;;;5.00;;
75535;SDS011;64119;52.070;20.804;2023-02-25T04:57:32;10.60;;;5.00;;
75535;SDS011;64119;52.070;20.804;2023-02-25T05:00:00;8.50;;;5.30;;
75535;SDS011;64119;52.070;20.804;2023-02-25T05:02:27;10.10;;;5.20;;
75535;SDS011;64119;52.070;20.804;2023-02-25T05:04:55;9.40;;;4.60;;
75535;SDS011;64119;52.070;20.804;2023-02-25T05:07:23;11.10;;;5.90;;
75535;SDS011;64119;52.070;20.804;2023-02-25T05:09:51;9.30;;;4.30;;
75535;SDS011;64119;52.070;20.804;2023-02-25T05:12:19;8.70;;;4.50;;
75535;SDS011;64119;52.070;20.804;2023-02-25T05:14:46;9.50;;;4.80;;
75535;SDS011;64119;52.070;20.804;2023-02-25T05:17:14;9.20;;;4.80;;
75535;SDS011;64119;52.070;20.804;2023-02-25T05:19:42;9.60;;;4.60;;
75535;SDS011;64119;52.070;20.804;2023-02-25T05:22:09;8.00;;;4.60;;
75535;SDS011;64119;52.070;20.804;2023-02-25T05:24:37;8.70;;;4.30;;
75535;SDS011;64119;52.070;20.804;2023-02-25T05:27:05;9.30;;;5.00;;
75535;SDS011;64119;52.070;20.804;2023-02-25T05:29:34;8.40;;;4.60;;
75535;SDS011;64119;52.070;20.804;2023-02-25T05:32:02;8.00;;;4.20;;
75535;SDS011;64119;52.070;20.804;2023-02-25T05:34:30;7.80;;;4.60;;
75535;SDS011;64119;52.070;20.804;2023-02-25T05:36:58;6.30;;;3.90;;
75535;SDS011;64119;52.070;20.804;2023-02-25T05:39:26;8.20;;;4.30;;
75535;SDS011;64119;52.070;20.804;2023-02-25T05:41:54;8.60;;;4.70;;
75535;SDS011;64119;52.070;20.804;2023-02-25T05:44:21;6.90;;;3.70;;
75535;SDS011;64119;52.070;20.804;2023-02-25T05:46:49;8.20;;;4.20;;
75535;SDS011;64119;52.070;20.804;2023-02-25T05:49:17;8.10;;;4.30;;
75535;SDS011;64119;52.070;20.804;2023-02-25T05:51:44;9.50;;;4.70;;
75535;SDS011;64119;52.070;20.804;2023-02-25T05:54:12;7.70;;;4.40;;
75535;SDS011;64119;52.070;20.804;2023-02-25T05:56:40;8.50;;;4.20;;
75535;SDS011;64119;52.070;20.804;2023-02-25T05:59:08;8.80;;;4.80;;
75535;SDS011;64119;52.070;20.804;2023-02-25T06:01:39;9.90;;;5.10;;
75535;SDS011;64119;52.070;20.804;2023-02-25T06:04:08;7.80;;;4.40;;
75535;SDS011;64119;52.070;20.804;2023-02-25T06:06:36;8.40;;;4.90;;
75535;SDS011;64119;52.070;20.804;2023-02-25T06:09:04;8.60;;;4.70;;
75535;SDS011;64119;52.070;20.804;2023-02-25T06:11:35;8.40;;;4.90;;
75535;SDS011;64119;52.070;20.804;2023-02-25T06:14:03;11.70;;;5.30;;
75535;SDS011;64119;52.070;20.804;2023-02-25T06:16:31;10.40;;;5.00;;
75535;SDS011;64119;52.070;20.804;2023-02-25T06:18:59;10.30;;;5.90;;
75535;SDS011;64119;52.070;20.804;2023-02-25T06:21:28;10.50;;;5.00;;
75535;SDS011;64119;52.070;20.804;2023-02-25T06:23:56;10.90;;;5.60;;
75535;SDS011;64119;52.070;20.804;2023-02-25T06:26:24;12.40;;;5.60;;
75535;SDS011;64119;52.070;20.804;2023-02-25T06:28:52;9.80;;;5.40;;
75535;SDS011;64119;52.070;20.804;2023-02-25T06:31:21;9.00;;;5.50;;
75535;SDS011;64119;52.070;20.804;2023-02-25T06:33:51;11.80;;;6.00;;
75535;SDS011;64119;52.070;20.804;2023-02-25T06:36:21;13.80;;;6.40;;
75535;SDS011;64119;52.070;20.804;2023-02-25T06:38:50;12.30;;;6.20;;
75535;SDS011;64119;52.070;20.804;2023-02-25T06:41:18;11.80;;;6.40;;
75535;SDS011;64119;52.070;20.804;2023-02-25T06:43:48;14.00;;;6.50;;
75535;SDS011;64119;52.070;20.804;2023-02-25T06:46:19;16.20;;;7.80;;
75535;SDS011;64119;52.070;20.804;2023-02-25T06:48:50;16.90;;;7.10;;
75535;SDS011;64119;52.070;20.804;2023-02-25T06:51:18;12.30;;;6.50;;
75535;SDS011;64119;52.070;20.804;2023-02-25T06:53:46;16.30;;;8.10;;
75535;SDS011;64119;52.070;20.804;2023-02-25T06:56:14;14.50;;;7.50;;
75535;SDS011;64119;52.070;20.804;2023-02-25T06:58:42;15.70;;;7.30;;
75535;SDS011;64119;52.070;20.804;2023-02-25T07:01:11;16.80;;;7.40;;
75535;SDS011;64119;52.070;20.804;2023-02-25T07:03:41;19.40;;;8.10;;
75535;SDS011;64119;52.070;20.804;2023-02-25T07:06:10;16.40;;;7.70;;
75535;SDS011;64119;52.070;20.804;2023-02-25T07:08:38;14.20;;;7.40;;
75535;SDS011;64119;52.070;20.804;2023-02-25T07:11:10;11.90;;;6.00;;
75535;SDS011;64119;52.070;20.804;2023-02-25T07:13:47;14.40;;;7.30;;
75535;SDS011;64119;52.070;20.804;2023-02-25T07:16:16;14.30;;;7.50;;
75535;SDS011;64119;52.070;20.804;2023-02-25T07:18:44;15.60;;;7.20;;
75535;SDS011;64119;52.070;20.804;2023-02-25T07:21:13;12.90;;;7.00;;
75535;SDS011;64119;52.070;20.804;2023-02-25T07:23:42;15.20;;;7.60;;
75535;SDS011;64119;52.070;20.804;2023-02-25T07:26:11;15.20;;;6.60;;
75535;SDS011;64119;52.070;20.804;2023-02-25T07:28:39;14.60;;;7.10;;
75535;SDS011;64119;52.070;20.804;2023-02-25T07:31:15;13.60;;;7.10;;
75535;SDS011;64119;52.070;20.804;2023-02-25T07:33:45;13.50;;;7.10;;
75535;SDS011;64119;52.070;20.804;2023-02-25T07:36:13;15.90;;;6.90;;
75535;SDS011;64119;52.070;20.804;2023-02-25T07:38:42;12.60;;;6.80;;
75535;SDS011;64119;52.070;20.804;2023-02-25T07:41:11;13.20;;;7.20;;
75535;SDS011;64119;52.070;20.804;2023-02-25T07:43:40;15.00;;;7.60;;
75535;SDS011;64119;52.070;20.804;2023-02-25T07:46:09;12.50;;;7.20;;
75535;SDS011;64119;52.070;20.804;2023-02-25T07:48:37;12.60;;;7.20;;
75535;SDS011;64119;52.070;20.804;2023-02-25T07:53:34;12.30;;;6.40;;
75535;SDS011;64119;52.070;20.804;2023-02-25T07:56:03;11.90;;;6.40;;
75535;SDS011;64119;52.070;20.804;2023-02-25T07:58:33;12.70;;;6.50;;
75535;SDS011;64119;52.070;20.804;2023-02-25T08:01:05;12.20;;;6.90;;
75535;SDS011;64119;52.070;20.804;2023-02-25T08:03:55;13.00;;;6.80;;
75535;SDS011;64119;52.070;20.804;2023-02-25T08:06:26;12.70;;;6.50;;
75535;SDS011;64119;52.070;20.804;2023-02-25T08:08:54;13.60;;;6.80;;
75535;SDS011;64119;52.070;20.804;2023-02-25T08:11:23;11.20;;;6.10;;
75535;SDS011;64119;52.070;20.804;2023-02-25T08:13:52;12.70;;;6.50;;
75535;SDS011;64119;52.070;20.804;2023-02-25T08:16:21;14.40;;;6.50;;
75535;SDS011;64119;52.070;20.804;2023-02-25T08:18:49;12.70;;;6.70;;
75535;SDS011;64119;52.070;20.804;2023-02-25T08:21:20;10.10;;;6.00;;
75535;SDS011;64119;52.070;20.804;2023-02-25T08:23:51;13.20;;;6.50;;
75535;SDS011;64119;52.070;20.804;2023-02-25T08:26:20;13.00;;;6.80;;
75535;SDS011;64119;52.070;20.804;2023-02-25T08:28:49;13.30;;;7.60;;
75535;SDS011;64119;52.070;20.804;2023-02-25T08:31:18;10.60;;;6.10;;
75535;SDS011;64119;52.070;20.804;2023-02-25T08:33:48;11.20;;;5.90;;
75535;SDS011;64119;52.070;20.804;2023-02-25T08:36:20;12.50;;;7.00;;
75535;SDS011;64119;52.070;20.804;2023-02-25T08:38:50;14.90;;;7.20;;
75535;SDS011;64119;52.070;20.804;2023-02-25T08:41:19;10.50;;;6.30;;
75535;SDS011;64119;52.070;20.804;2023-02-25T08:43:48;10.60;;;5.80;;
75535;SDS011;64119;52.070;20.804;2023-02-25T08:46:19;13.30;;;6.10;;
75535;SDS011;64119;52.070;20.804;2023-02-25T08:48:48;9.20;;;5.20;;
75535;SDS011;64119;52.070;20.804;2023-02-25T08:51:17;11.30;;;6.10;;
75535;SDS011;64119;52.070;20.804;2023-02-25T08:53:46;9.70;;;5.20;;
75535;SDS011;64119;52.070;20.804;2023-02-25T08:56:14;11.80;;;5.80;;
75535;SDS011;64119;52.070;20.804;2023-02-25T08:58:42;11.30;;;5.50;;
75535;SDS011;64119;52.070;20.804;2023-02-25T09:01:12;9.90;;;5.50;;
75535;SDS011;64119;52.070;20.804;2023-02-25T09:03:42;8.80;;;4.80;;
75535;SDS011;64119;52.070;20.804;2023-02-25T09:06:23;10.30;;;5.40;;
75535;SDS011;64119;52.070;20.804;2023-02-25T09:08:55;8.10;;;4.90;;
75535;SDS011;64119;52.070;20.804;2023-02-25T09:11:24;9.20;;;4.90;;
75535;SDS011;64119;52.070;20.804;2023-02-25T09:13:53;10.40;;;5.00;;
75535;SDS011;64119;52.070;20.804;2023-02-25T09:16:21;7.30;;;4.20;;
75535;SDS011;64119;52.070;20.804;2023-02-25T09:18:49;8.30;;;4.10;;
75535;SDS011;64119;52.070;20.804;2023-02-25T09:21:18;6.00;;;3.90;;
75535;SDS011;64119;52.070;20.804;2023-02-25T09:23:46;8.10;;;3.50;;
75535;SDS011;64119;52.070;20.804;2023-02-25T09:26:18;6.10;;;3.70;;
75535;SDS011;64119;52.070;20.804;2023-02-25T09:28:47;6.20;;;3.30;;
75535;SDS011;64119;52.070;20.804;2023-02-25T09:31:16;5.80;;;3.00;;
75535;SDS011;64119;52.070;20.804;2023-02-25T09:33:44;5.00;;;2.90;;
75535;SDS011;64119;52.070;20.804;2023-02-25T09:36:13;4.50;;;3.00;;
75535;SDS011;64119;52.070;20.804;2023-02-25T09:38:43;4.60;;;2.80;;
75535;SDS011;64119;52.070;20.804;2023-02-25T09:43:56;6.00;;;2.40;;
75535;SDS011;64119;52.070;20.804;2023-02-25T09:46:34;4.80;;;2.60;;
75535;SDS011;64119;52.070;20.804;2023-02-25T09:49:06;3.30;;;2.10;;
75535;SDS011;64119;52.070;20.804;2023-02-25T09:51:46;6.50;;;2.90;;
75535;SDS011;64119;52.070;20.804;2023-02-25T09:56:56;7.20;;;3.40;;
75535;SDS011;64119;52.070;20.804;2023-02-25T09:59:27;5.80;;;2.90;;
75535;SDS011;64119;52.070;20.804;2023-02-25T10:01:57;4.10;;;2.20;;
75535;SDS011;64119;52.070;20.804;2023-02-25T10:04:45;3.40;;;2.20;;
75535;SDS011;64119;52.070;20.804;2023-02-25T10:07:33;3.60;;;1.70;;
75535;SDS011;64119;52.070;20.804;2023-02-25T10:10:12;2.30;;;1.50;;
75535;SDS011;64119;52.070;20.804;2023-02-25T10:12:56;3.60;;;1.90;;
75535;SDS011;64119;52.070;20.804;2023-02-25T10:16:24;2.50;;;1.70;;
75535;SDS011;64119;52.070;20.804;2023-02-25T10:24:02;3.80;;;2.50;;
75535;SDS011;64119;52.070;20.804;2023-02-25T10:26:55;4.80;;;2.60;;
75535;SDS011;64119;52.070;20.804;2023-02-25T10:29:39;5.20;;;2.10;;
75535;SDS011;64119;52.070;20.804;2023-02-25T10:32:20;4.20;;;2.10;;
75535;SDS011;64119;52.070;20.804;2023-02-25T10:34:54;4.90;;;2.90;;
75535;SDS011;64119;52.070;20.804;2023-02-25T10:37:33;4.10;;;2.60;;
75535;SDS011;64119;52.070;20.804;2023-02-25T10:40:03;4.90;;;2.80;;
75535;SDS011;64119;52.070;20.804;2023-02-25T10:42:37;6.20;;;3.00;;
75535;SDS011;64119;52.070;20.804;2023-02-25T10:45:09;4.80;;;2.60;;
75535;SDS011;64119;52.070;20.804;2023-02-25T10:47:42;3.90;;;2.50;;
75535;SDS011;64119;52.070;20.804;2023-02-25T10:53:13;4.90;;;2.40;;
75535;SDS011;64119;52.070;20.804;2023-02-25T10:55:46;5.20;;;2.10;;
75535;SDS011;64119;52.070;20.804;2023-02-25T11:00:58;3.10;;;1.20;;
75535;SDS011;64119;52.070;20.804;2023-02-25T11:03:32;3.60;;;1.60;;
75535;SDS011;64119;52.070;20.804;2023-02-25T11:06:09;2.50;;;1.60;;
75535;SDS011;64119;52.070;20.804;2023-02-25T11:08:50;3.50;;;1.70;;
75535;SDS011;64119;52.070;20.804;2023-02-25T11:11:21;3.80;;;1.90;;
75535;SDS011;64119;52.070;20.804;2023-02-25T11:16:30;3.70;;;1.90;;
75535;SDS011;64119;52.070;20.804;2023-02-25T11:19:16;3.20;;;2.10;;
75535;SDS011;64119;52.070;20.804;2023-02-25T11:21:49;2.80;;;1.70;;
75535;SDS011;64119;52.070;20.804;2023-02-25T11:24:19;3.30;;;1.90;;
75535;SDS011;64119;52.070;20.804;2023-02-25T11:26:54;3.30;;;2.20;;
75535;SDS011;64119;52.070;20.804;2023-02-25T11:29:26;5.70;;;2.90;;
75535;SDS011;64119;52.070;20.804;2023-02-25T11:32:00;3.60;;;2.10;;
75535;SDS011;64119;52.070;20.804;2023-02-25T11:34:37;2.70;;;1.90;;
75535;SDS011;64119;52.070;20.804;2023-02-25T11:40:19;6.40;;;2.70;;
75535;SDS011;64119;52.070;20.804;2023-02-25T11:45:42;5.40;;;2.80;;
75535;SDS011;64119;52.070;20.804;2023-02-25T11:48:24;4.70;;;2.40;;
75535;SDS011;64119;52.070;20.804;2023-02-25T11:56:41;5.30;;;2.90;;
75535;SDS011;64119;52.070;20.804;2023-02-25T12:47:16;3.30;;;1.60;;
75535;SDS011;64119;52.070;20.804;2023-02-25T12:58:42;2.80;;;1.60;;
75535;SDS011;64119;52.070;20.804;2023-02-25T13:01:26;2.70;;;1.90;;
75535;SDS011;64119;52.070;20.804;2023-02-25T13:12:27;2.20;;;1.20;;
75535;SDS011;64119;52.070;20.804;2023-02-25T13:15:12;3.50;;;1.80;;
75535;SDS011;64119;52.070;20.804;2023-02-25T13:26:19;1.40;;;0.90;;
75535;SDS011;64119;52.070;20.804;2023-02-25T13:34:45;2.50;;;0.90;;
75535;SDS011;64119;52.070;20.804;2023-02-25T13:37:40;1.70;;;1.10;;
75535;SDS011;64119;52.070;20.804;2023-02-25T13:46:13;2.40;;;1.60;;
75535;SDS011;64119;52.070;20.804;2023-02-25T13:51:42;3.00;;;1.60;;
75535;SDS011;64119;52.070;20.804;2023-02-25T14:03:02;1.90;;;1.00;;
75535;SDS011;64119;52.070;20.804;2023-02-25T14:06:01;3.30;;;1.80;;
75535;SDS011;64119;52.070;20.804;2023-02-25T14:12:08;2.70;;;1.20;;
75535;SDS011;64119;52.070;20.804;2023-02-25T14:26:17;3.60;;;1.70;;
75535;SDS011;64119;52.070;20.804;2023-02-25T14:34:41;3.00;;;1.60;;
75535;SDS011;64119;52.070;20.804;2023-02-25T14:40:00;2.40;;;1.40;;
75535;SDS011;64119;52.070;20.804;2023-02-25T14:45:46;2.10;;;1.00;;
75535;SDS011;64119;52.070;20.804;2023-02-25T14:48:31;2.20;;;1.30;;
75535;SDS011;64119;52.070;20.804;2023-02-25T15:05:25;2.40;;;1.30;;
75535;SDS011;64119;52.070;20.804;2023-02-25T15:11:06;3.90;;;1.60;;
75535;SDS011;64119;52.070;20.804;2023-02-25T15:14:03;3.20;;;1.90;;
75535;SDS011;64119;52.070;20.804;2023-02-25T15:19:27;2.70;;;1.60;;
75535;SDS011;64119;52.070;20.804;2023-02-25T15:22:15;5.00;;;1.90;;
75535;SDS011;64119;52.070;20.804;2023-02-25T15:24:43;5.00;;;2.30;;
75535;SDS011;64119;52.070;20.804;2023-02-25T15:27:31;4.30;;;2.20;;
75535;SDS011;64119;52.070;20.804;2023-02-25T15:32:48;4.80;;;2.90;;
75535;SDS011;64119;52.070;20.804;2023-02-25T15:38:06;7.60;;;3.20;;
75535;SDS011;64119;52.070;20.804;2023-02-25T15:40:41;9.50;;;4.90;;
75535;SDS011;64119;52.070;20.804;2023-02-25T15:45:51;5.30;;;2.90;;
75535;SDS011;64119;52.070;20.804;2023-02-25T15:48:29;6.70;;;3.40;;
75535;SDS011;64119;52.070;20.804;2023-02-25T15:50:59;5.00;;;2.70;;
75535;SDS011;64119;52.070;20.804;2023-02-25T16:06:11;7.90;;;3.90;;
75535;SDS011;64119;52.070;20.804;2023-02-25T16:16:48;5.70;;;2.60;;
75535;SDS011;64119;52.070;20.804;2023-02-25T16:19:27;5.70;;;3.30;;
75535;SDS011;64119;52.070;20.804;2023-02-25T16:22:00;7.70;;;4.50;;
75535;SDS011;64119;52.070;20.804;2023-02-25T16:24:35;8.30;;;3.80;;
75535;SDS011;64119;52.070;20.804;2023-02-25T16:27:04;8.50;;;4.30;;
75535;SDS011;64119;52.070;20.804;2023-02-25T16:35:40;8.20;;;4.10;;
75535;SDS011;64119;52.070;20.804;2023-02-25T16:40:27;8.60;;;5.00;;
75535;SDS011;64119;52.070;20.804;2023-02-25T16:42:57;6.10;;;3.70;;
75535;SDS011;64119;52.070;20.804;2023-02-25T16:45:30;6.00;;;3.60;;
75535;SDS011;64119;52.070;20.804;2023-02-25T16:48:04;6.00;;;3.90;;
75535;SDS011;64119;52.070;20.804;2023-02-25T16:50:33;4.20;;;2.90;;
75535;SDS011;64119;52.070;20.804;2023-02-25T16:53:02;5.90;;;3.30;;
75535;SDS011;64119;52.070;20.804;2023-02-25T16:55:38;9.90;;;4.70;;
75535;SDS011;64119;52.070;20.804;2023-02-25T17:00:53;8.70;;;4.50;;
75535;SDS011;64119;52.070;20.804;2023-02-25T17:03:28;8.00;;;4.80;;
75535;SDS011;64119;52.070;20.804;2023-02-25T17:06:06;9.20;;;4.50;;
75535;SDS011;64119;52.070;20.804;2023-02-25T17:08:44;7.50;;;3.90;;
75535;SDS011;64119;52.070;20.804;2023-02-25T17:11:17;4.80;;;3.00;;
75535;SDS011;64119;52.070;20.804;2023-02-25T17:13:46;7.60;;;4.40;;
75535;SDS011;64119;52.070;20.804;2023-02-25T17:19:01;12.50;;;6.70;;
75535;SDS011;64119;52.070;20.804;2023-02-25T17:21:35;10.80;;;5.50;;
75535;SDS011;64119;52.070;20.804;2023-02-25T17:24:06;11.00;;;5.90;;
75535;SDS011;64119;52.070;20.804;2023-02-25T17:26:40;10.30;;;5.80;;
75535;SDS011;64119;52.070;20.804;2023-02-25T17:29:14;8.30;;;5.00;;
75535;SDS011;64119;52.070;20.804;2023-02-25T17:31:44;7.50;;;4.30;;
75535;SDS011;64119;52.070;20.804;2023-02-25T17:36:57;9.60;;;5.40;;
75535;SDS011;64119;52.070;20.804;2023-02-25T17:39:29;8.30;;;4.90;;
75535;SDS011;64119;52.070;20.804;2023-02-25T17:41:57;5.20;;;3.90;;
75535;SDS011;64119;52.070;20.804;2023-02-25T17:47:09;12.10;;;6.40;;
75535;SDS011;64119;52.070;20.804;2023-02-25T17:49:45;10.80;;;5.80;;
75535;SDS011;64119;52.070;20.804;2023-02-25T17:52:18;9.30;;;5.00;;
75535;SDS011;64119;52.070;20.804;2023-02-25T17:54:55;9.60;;;5.60;;
75535;SDS011;64119;52.070;20.804;2023-02-25T17:57:26;5.90;;;3.50;;
75535;SDS011;64119;52.070;20.804;2023-02-25T18:00:00;8.10;;;4.90;;
75535;SDS011;64119;52.070;20.804;2023-02-25T18:02:40;7.60;;;4.10;;
75535;SDS011;64119;52.070;20.804;2023-02-25T18:07:40;8.40;;;4.60;;
75535;SDS011;64119;52.070;20.804;2023-02-25T18:12:52;9.90;;;5.50;;
75535;SDS011;64119;52.070;20.804;2023-02-25T18:17:55;10.10;;;5.10;;
75535;SDS011;64119;52.070;20.804;2023-02-25T18:23:03;5.80;;;3.70;;
75535;SDS011;64119;52.070;20.804;2023-02-25T18:28:03;8.40;;;4.80;;
75535;SDS011;64119;52.070;20.804;2023-02-25T18:30:32;8.80;;;4.80;;
75535;SDS011;64119;52.070;20.804;2023-02-25T18:33:00;7.10;;;3.40;;
75535;SDS011;64119;52.070;20.804;2023-02-25T18:35:28;6.30;;;3.60;;
75535;SDS011;64119;52.070;20.804;2023-02-25T18:37:58;6.40;;;3.70;;
75535;SDS011;64119;52.070;20.804;2023-02-25T18:40:27;11.00;;;5.80;;
75535;SDS011;64119;52.070;20.804;2023-02-25T18:42:57;7.00;;;3.80;;
75535;SDS011;64119;52.070;20.804;2023-02-25T18:45:27;10.80;;;5.70;;
75535;SDS011;64119;52.070;20.804;2023-02-25T18:50:23;7.00;;;3.70;;
75535;SDS011;64119;52.070;20.804;2023-02-25T18:52:51;7.80;;;4.70;;
75535;SDS011;64119;52.070;20.804;2023-02-25T18:55:22;7.30;;;4.20;;
75535;SDS011;64119;52.070;20.804;2023-02-25T18:57:52;9.90;;;5.40;;
75535;SDS011;64119;52.070;20.804;2023-02-25T19:00:21;8.60;;;5.30;;
75535;SDS011;64119;52.070;20.804;2023-02-25T19:03:00;6.00;;;3.10;;
75535;SDS011;64119;52.070;20.804;2023-02-25T19:05:30;5.00;;;3.40;;
75535;SDS011;64119;52.070;20.804;2023-02-25T19:07:58;7.90;;;4.50;;
75535;SDS011;64119;52.070;20.804;2023-02-25T19:10:28;5.90;;;3.20;;
75535;SDS011;64119;52.070;20.804;2023-02-25T19:13:04;5.10;;;2.80;;
75535;SDS011;64119;52.070;20.804;2023-02-25T19:15:34;5.40;;;2.90;;
75535;SDS011;64119;52.070;20.804;2023-02-25T19:18:02;7.70;;;3.70;;
75535;SDS011;64119;52.070;20.804;2023-02-25T19:20:30;5.90;;;3.50;;